createdAt,value
2019-02-19T00:02:12.864Z,100.00
2019-02-19T00:05:02.155Z,100.00
2019-02-19T00:07:51.498Z,100.00
2019-02-19T00:10:41.148Z,100.00
2019-02-19T00:13:30.452Z,100.00
2019-02-19T00:16:19.854Z,100.00
2019-02-19T00:19:09.056Z,99.01
2019-02-19T00:21:58.397Z,99.32
2019-02-19T00:24:47.947Z,98.07
2019-02-19T00:27:37.729Z,97.84
2019-02-19T00:30:27.107Z,98.04
2019-02-19T00:33:16.703Z,98.13
2019-02-19T00:36:06.007Z,98.77
2019-02-19T00:38:55.362Z,99.49
2019-02-19T00:41:44.704Z,100.00
2019-02-19T00:44:34.318Z,100.00
2019-02-19T00:47:23.790Z,100.00
2019-02-19T00:50:15.552Z,100.00
2019-02-19T00:53:04.736Z,100.00
2019-02-19T00:55:53.963Z,100.00
2019-02-19T00:58:43.191Z,100.00
2019-02-19T01:01:32.916Z,100.00
2019-02-19T01:04:22.315Z,100.00
2019-02-19T01:07:11.953Z,100.00
2019-02-19T01:10:01.318Z,100.00
2019-02-19T01:12:50.352Z,100.00
2019-02-19T01:15:39.631Z,100.00
2019-02-19T01:18:28.982Z,100.00
2019-02-19T01:21:19.542Z,100.00
2019-02-19T01:24:09.287Z,100.00
2019-02-19T01:26:59.395Z,100.00
2019-02-19T01:29:47.990Z,100.00
2019-02-19T01:32:37.187Z,100.00
2019-02-19T01:35:26.478Z,100.00
2019-02-19T01:38:15.768Z,100.00
2019-02-19T01:41:04.983Z,100.00
2019-02-19T01:43:54.492Z,100.00
2019-02-19T01:46:43.547Z,100.00
2019-02-19T01:49:33.059Z,100.00
2019-02-19T01:52:21.872Z,100.00
2019-02-19T01:55:14.091Z,100.00
2019-02-19T01:58:03.669Z,100.00
2019-02-19T02:00:52.988Z,100.00
2019-02-19T02:03:42.381Z,100.00
2019-02-19T02:06:31.751Z,100.00
2019-02-19T02:09:21.084Z,100.00
2019-02-19T02:12:10.433Z,100.00
2019-02-19T02:14:59.822Z,100.00
2019-02-19T02:17:49.101Z,100.00
2019-02-19T02:20:40.147Z,100.00
2019-02-19T02:23:29.727Z,100.00
2019-02-19T02:26:18.631Z,100.00
2019-02-19T02:29:08.066Z,100.00
2019-02-19T02:31:58.045Z,100.00
2019-02-19T02:34:46.924Z,100.00
2019-02-19T02:37:35.770Z,100.00
2019-02-19T02:40:25.254Z,100.00
2019-02-19T02:43:14.371Z,100.00
2019-02-19T02:46:03.597Z,100.00
2019-02-19T02:48:52.482Z,100.00
2019-02-19T02:51:42.002Z,100.00
2019-02-19T02:54:30.871Z,100.00
2019-02-19T02:57:20.330Z,100.00
2019-02-19T03:00:11.129Z,100.00
2019-02-19T03:03:00.687Z,100.00
2019-02-19T03:06:11.750Z,100.00
2019-02-19T03:09:00.272Z,100.00
2019-02-19T03:11:49.619Z,100.00
2019-02-19T03:14:38.933Z,100.00
2019-02-19T03:17:28.254Z,100.00
2019-02-19T03:20:17.564Z,100.00
2019-02-19T03:23:07.407Z,100.00
2019-02-19T03:25:57.042Z,100.00
2019-02-19T03:28:45.821Z,100.00
2019-02-19T03:31:35.068Z,100.00
2019-02-19T03:34:24.419Z,100.00
2019-02-19T03:37:13.768Z,100.00
2019-02-19T03:40:03.500Z,100.00
2019-02-19T03:42:52.895Z,100.00
2019-02-19T03:45:42.216Z,100.00
2019-02-19T03:48:31.019Z,100.00
2019-02-19T03:51:20.309Z,100.00
2019-02-19T03:54:09.587Z,100.00
2019-02-19T03:56:59.093Z,100.00
2019-02-19T03:59:48.481Z,100.00
2019-02-19T04:02:38.665Z,100.00
2019-02-19T04:05:27.665Z,100.00
2019-02-19T04:08:16.965Z,100.00
2019-02-19T04:11:06.442Z,100.00
2019-02-19T04:13:55.864Z,100.00
2019-02-19T04:16:45.236Z,100.00
2019-02-19T04:19:34.515Z,100.00
2019-02-19T04:22:23.617Z,100.00
2019-02-19T04:25:12.507Z,100.00
2019-02-19T04:28:01.751Z,100.00
2019-02-19T04:30:50.863Z,100.00
2019-02-19T04:33:40.083Z,100.00
2019-02-19T04:36:29.762Z,100.00
2019-02-19T04:39:19.031Z,100.00
2019-02-19T04:42:08.704Z,100.00
2019-02-19T04:44:58.289Z,100.00
2019-02-19T04:47:47.912Z,100.00
2019-02-19T04:50:37.131Z,99.59
2019-02-19T04:53:26.898Z,99.11
2019-02-19T04:56:16.414Z,98.41
2019-02-19T04:59:05.908Z,98.85
2019-02-19T05:01:55.281Z,98.01
2019-02-19T05:04:51.095Z,99.46
2019-02-19T05:07:40.346Z,100.00
2019-02-19T05:10:29.375Z,100.00
2019-02-19T05:13:18.180Z,100.00
2019-02-19T05:16:07.978Z,100.00
2019-02-19T05:18:57.425Z,100.00
2019-02-19T05:21:46.975Z,100.00
2019-02-19T05:24:36.580Z,100.00
2019-02-19T05:27:25.912Z,100.00
2019-02-19T05:30:15.299Z,100.00
2019-02-19T05:33:04.689Z,100.00
2019-02-19T05:35:54.161Z,100.00
2019-02-19T05:38:45.354Z,100.00
2019-02-19T05:41:34.567Z,100.00
2019-02-19T05:44:24.276Z,100.00
2019-02-19T05:47:14.208Z,100.00
2019-02-19T05:50:03.906Z,100.00
2019-02-19T05:52:53.486Z,100.00
2019-02-19T05:55:43.001Z,100.00
2019-02-19T05:58:32.396Z,100.00
2019-02-19T06:01:23.621Z,100.00
2019-02-19T06:04:16.666Z,99.64
2019-02-19T06:07:05.574Z,99.37
2019-02-19T06:09:54.566Z,96.91
2019-02-19T06:12:44.240Z,97.53
2019-02-19T06:15:33.568Z,100.00
2019-02-19T06:18:22.950Z,100.00
2019-02-19T06:21:12.419Z,100.00
2019-02-19T06:24:01.737Z,99.89
2019-02-19T06:26:50.974Z,98.56
2019-02-19T06:29:40.313Z,96.46
2019-02-19T06:32:29.580Z,96.25
2019-02-19T06:35:18.710Z,97.24
2019-02-19T06:38:08.165Z,98.06
2019-02-19T06:40:57.441Z,97.01
2019-02-19T06:43:52.271Z,95.76
2019-02-19T06:46:41.507Z,96.15
2019-02-19T06:49:30.865Z,96.62
2019-02-19T06:52:20.104Z,96.14
2019-02-19T06:55:09.504Z,95.17
2019-02-19T06:57:59.177Z,95.64
2019-02-19T07:00:48.647Z,94.66
2019-02-19T07:03:43.274Z,93.63
2019-02-19T07:06:32.944Z,92.51
2019-02-19T07:09:22.351Z,90.53
2019-02-19T07:12:11.086Z,89.76
2019-02-19T07:15:00.102Z,88.33
2019-02-19T07:17:49.549Z,88.04
2019-02-19T07:20:39.277Z,86.26
2019-02-19T07:23:28.793Z,85.23
2019-02-19T07:26:17.798Z,84.65
2019-02-19T07:29:07.287Z,84.79
2019-02-19T07:31:56.132Z,85.29
2019-02-19T07:34:45.541Z,84.63
2019-02-19T07:37:34.902Z,82.85
2019-02-19T07:40:25.819Z,83.97
2019-02-19T07:43:15.360Z,82.25
2019-02-19T07:46:04.677Z,81.79
2019-02-19T07:48:54.558Z,81.20
2019-02-19T07:51:43.832Z,82.21
2019-02-19T07:54:32.610Z,81.81
2019-02-19T07:57:22.287Z,82.83
2019-02-19T08:00:12.221Z,81.92
2019-02-19T08:03:01.407Z,82.05
2019-02-19T08:05:51.478Z,81.57
2019-02-19T08:08:41.247Z,79.76
2019-02-19T08:11:30.587Z,79.11
2019-02-19T08:14:19.830Z,78.14
2019-02-19T08:17:08.903Z,77.90
2019-02-19T08:19:58.360Z,78.15
2019-02-19T08:22:47.682Z,76.11
2019-02-19T08:25:37.221Z,76.00
2019-02-19T08:28:27.515Z,76.23
2019-02-19T08:31:16.859Z,75.70
2019-02-19T08:34:06.431Z,75.47
2019-02-19T08:36:55.968Z,75.18
2019-02-19T08:39:45.983Z,74.92
2019-02-19T08:42:35.587Z,73.68
2019-02-19T08:45:25.210Z,71.93
2019-02-19T08:48:14.523Z,72.58
2019-02-19T08:51:03.611Z,69.95
2019-02-19T08:53:52.922Z,71.97
2019-02-19T08:56:42.583Z,72.98
2019-02-19T08:59:32.028Z,71.06
2019-02-19T09:02:20.932Z,72.09
2019-02-19T09:05:09.696Z,71.62
2019-02-19T09:07:59.134Z,68.71
2019-02-19T09:10:48.796Z,68.81
2019-02-19T09:13:38.632Z,67.17
2019-02-19T09:16:28.055Z,67.04
2019-02-19T09:19:17.546Z,65.61
2019-02-19T09:22:06.766Z,66.77
2019-02-19T09:24:56.011Z,65.17
2019-02-19T09:27:45.608Z,65.16
2019-02-19T09:30:34.970Z,64.99
2019-02-19T09:33:24.233Z,62.95
2019-02-19T09:36:13.499Z,62.73
2019-02-19T09:39:04.191Z,61.82
2019-02-19T09:41:53.444Z,58.39
2019-02-19T09:44:42.779Z,60.73
2019-02-19T09:47:32.361Z,59.76
2019-02-19T09:50:21.518Z,59.27
2019-02-19T09:53:10.546Z,58.00
2019-02-19T09:55:59.810Z,59.63
2019-02-19T09:58:49.462Z,60.43
2019-02-19T10:01:38.739Z,58.45
2019-02-19T10:04:27.987Z,57.95
2019-02-19T10:07:19.252Z,58.90
2019-02-19T10:10:10.554Z,56.79
2019-02-19T10:12:59.761Z,56.05
2019-02-19T10:15:49.492Z,55.72
2019-02-19T10:18:38.780Z,54.79
2019-02-19T10:21:28.460Z,56.02
2019-02-19T10:24:18.024Z,53.87
2019-02-19T10:27:07.648Z,54.22
2019-02-19T10:29:56.997Z,53.85
2019-02-19T10:32:46.881Z,53.69
2019-02-19T10:35:36.312Z,53.46
2019-02-19T10:38:25.714Z,52.80
2019-02-19T10:41:15.199Z,53.81
2019-02-19T10:44:04.600Z,52.30
2019-02-19T10:46:53.855Z,53.05
2019-02-19T10:49:42.955Z,52.65
2019-02-19T10:52:31.886Z,52.88
2019-02-19T10:55:21.069Z,52.96
2019-02-19T10:58:11.553Z,52.58
2019-02-19T11:01:01.152Z,51.71
2019-02-19T11:03:50.417Z,50.98
2019-02-19T11:06:39.778Z,51.28
2019-02-19T11:09:29.158Z,50.93
2019-02-19T11:12:19.073Z,51.63
2019-02-19T11:15:08.714Z,50.16
2019-02-19T11:17:57.798Z,49.49
2019-02-19T11:20:46.912Z,48.75
2019-02-19T11:23:35.657Z,47.20
2019-02-19T11:26:25.106Z,49.63
2019-02-19T11:29:14.510Z,47.31
2019-02-19T11:32:04.026Z,47.36
2019-02-19T11:34:54.525Z,46.23
2019-02-19T11:37:43.839Z,45.67
2019-02-19T11:40:33.145Z,45.51
2019-02-19T11:43:22.748Z,42.27
2019-02-19T11:46:11.872Z,40.70
2019-02-19T11:49:01.366Z,36.81
2019-02-19T11:51:50.711Z,37.52
2019-02-19T11:54:40.064Z,39.40
2019-02-19T11:57:29.199Z,36.28
2019-02-19T12:00:22.511Z,36.24
2019-02-19T12:03:12.099Z,36.23
2019-02-19T12:06:01.301Z,37.60
2019-02-19T12:08:51.208Z,35.94
2019-02-19T12:11:40.185Z,32.73
2019-02-19T12:14:29.516Z,33.44
2019-02-19T12:17:18.776Z,34.21
2019-02-19T12:20:08.814Z,34.86
2019-02-19T12:22:58.137Z,33.04
2019-02-19T12:25:47.927Z,31.07
2019-02-19T12:28:37.652Z,34.63
2019-02-19T12:31:26.995Z,33.56
2019-02-19T12:34:16.260Z,32.46
2019-02-19T12:37:08.502Z,34.43
2019-02-19T12:39:57.813Z,32.29
2019-02-19T12:42:47.167Z,31.15
2019-02-19T12:45:36.682Z,29.81
2019-02-19T12:48:26.406Z,30.50
2019-02-19T12:51:15.744Z,32.65
2019-02-19T12:54:05.189Z,32.34
2019-02-19T12:56:54.810Z,30.29
2019-02-19T12:59:44.243Z,28.76
2019-02-19T13:02:33.723Z,29.99
2019-02-19T13:05:23.192Z,30.61
2019-02-19T13:08:12.631Z,29.19
2019-02-19T13:11:01.651Z,32.02
2019-02-19T13:13:51.222Z,30.63
2019-02-19T13:16:40.708Z,31.69
2019-02-19T13:19:29.740Z,31.00
2019-02-19T13:22:18.646Z,30.97
2019-02-19T13:25:08.743Z,28.32
2019-02-19T13:27:57.554Z,27.89
2019-02-19T13:30:46.876Z,27.61
2019-02-19T13:33:36.210Z,28.26
2019-02-19T13:36:25.521Z,27.45
2019-02-19T13:39:15.078Z,25.93
2019-02-19T13:42:04.772Z,25.76
2019-02-19T13:44:53.531Z,23.96
2019-02-19T13:47:42.785Z,24.90
2019-02-19T13:50:31.937Z,22.73
2019-02-19T13:53:25.928Z,22.84
2019-02-19T13:56:15.214Z,21.57
2019-02-19T13:59:04.479Z,21.72
2019-02-19T14:01:53.959Z,21.63
2019-02-19T14:04:43.242Z,23.67
2019-02-19T14:07:32.162Z,22.01
2019-02-19T14:13:09.231Z,20.15
2019-02-19T14:16:20.758Z,21.25
2019-02-19T14:19:21.221Z,21.45
2019-02-19T14:22:24.513Z,20.57
2019-02-19T14:25:32.059Z,21.37
2019-02-19T14:28:58.497Z,23.30
2019-02-19T14:32:09.271Z,27.55
2019-02-19T14:35:16.095Z,27.76
2019-02-19T14:38:40.089Z,29.23
2019-02-19T14:41:51.529Z,29.29
2019-02-19T14:44:58.106Z,27.04
2019-02-19T14:48:18.645Z,27.13
2019-02-19T14:51:17.061Z,28.53
2019-02-19T14:54:24.334Z,30.65
2019-02-19T14:57:32.830Z,32.88
2019-02-19T15:00:43.490Z,34.62
2019-02-19T15:04:00.892Z,35.51
2019-02-19T15:07:30.029Z,37.63
2019-02-19T15:10:36.454Z,38.97
2019-02-19T15:13:39.083Z,39.05
2019-02-19T15:16:46.223Z,40.37
2019-02-19T15:19:54.704Z,41.62
2019-02-19T15:23:02.975Z,42.43
2019-02-19T15:26:23.520Z,43.27
2019-02-19T15:29:28.185Z,45.10
2019-02-19T15:32:35.394Z,45.85
2019-02-19T15:35:53.933Z,46.05
2019-02-19T15:39:05.597Z,49.40
2019-02-19T15:41:48.615Z,51.47
2019-02-19T15:44:37.047Z,48.33
2019-02-19T15:47:19.866Z,48.85
2019-02-19T15:50:06.394Z,48.87
2019-02-19T15:52:54.924Z,49.47
2019-02-19T15:55:43.214Z,47.78
2019-02-19T15:58:27.240Z,48.34
2019-02-19T16:01:15.789Z,47.83
2019-02-19T16:04:05.644Z,48.52
2019-02-19T16:07:14.632Z,48.97
2019-02-19T16:10:04.606Z,49.68
2019-02-19T16:12:54.356Z,52.09
2019-02-19T16:15:46.991Z,50.99
2019-02-19T16:18:39.606Z,50.60
2019-02-19T16:21:23.349Z,47.97
2019-02-19T16:24:03.895Z,48.20
2019-02-19T16:26:59.498Z,52.22
2019-02-19T16:29:48.201Z,52.99
2019-02-19T16:32:38.061Z,54.73
2019-02-19T16:35:24.561Z,52.69
2019-02-19T16:38:14.436Z,51.90
2019-02-19T16:41:13.356Z,50.83
2019-02-19T16:44:09.048Z,51.51
2019-02-19T16:46:46.355Z,50.96
2019-02-19T16:49:29.841Z,50.35
2019-02-19T16:52:20.099Z,53.07
2019-02-19T16:54:58.976Z,56.28
2019-02-19T16:57:51.957Z,57.62
2019-02-19T17:00:31.146Z,58.59
2019-02-19T17:03:09.451Z,58.26
2019-02-19T17:05:54.469Z,55.21
2019-02-19T17:08:44.261Z,57.13
2019-02-19T17:11:32.104Z,56.54
2019-02-19T17:14:20.923Z,56.02
2019-02-19T17:17:08.264Z,63.98
2019-02-19T17:20:01.141Z,66.40
2019-02-19T17:22:39.224Z,68.88
2019-02-19T17:25:18.368Z,68.35
2019-02-19T17:28:10.947Z,68.36
2019-02-19T17:31:12.865Z,68.85
2019-02-19T17:34:11.586Z,69.36
2019-02-19T17:36:59.765Z,71.19
2019-02-19T17:39:48.767Z,73.44
2019-02-19T17:42:38.868Z,74.69
2019-02-19T17:45:21.843Z,74.81
2019-02-19T17:48:03.665Z,74.55
2019-02-19T17:50:59.828Z,73.82
2019-02-19T17:53:50.319Z,74.10
2019-02-19T17:56:32.032Z,75.37
2019-02-19T17:59:29.419Z,74.67
2019-02-19T18:02:14.381Z,75.73
2019-02-19T18:05:09.049Z,77.76
2019-02-19T18:08:04.927Z,79.34
2019-02-19T18:10:55.112Z,79.95
2019-02-19T18:13:40.503Z,79.52
2019-02-19T18:16:36.329Z,79.13
2019-02-19T18:19:07.272Z,81.38
2019-02-19T18:21:38.147Z,80.86
2019-02-19T18:24:09.148Z,82.50
2019-02-19T18:26:40.058Z,82.91
2019-02-19T18:29:10.930Z,83.54
2019-02-19T18:31:41.811Z,84.56
2019-02-19T18:34:13.048Z,83.67
2019-02-19T18:36:43.928Z,84.11
2019-02-19T18:39:14.866Z,85.20
2019-02-19T18:41:45.832Z,85.84
2019-02-19T18:44:17.050Z,86.17
2019-02-19T18:46:48.004Z,85.35
2019-02-19T18:49:19.002Z,84.83
2019-02-19T18:51:50.184Z,84.20
2019-02-19T18:54:21.139Z,84.32
2019-02-19T18:56:52.143Z,83.75
2019-02-19T18:59:23.307Z,84.75
2019-02-19T19:01:54.325Z,83.40
2019-02-19T19:04:25.453Z,83.66
2019-02-19T19:06:56.423Z,83.54
2019-02-19T19:09:27.557Z,82.75
2019-02-19T19:11:58.734Z,83.19
2019-02-19T19:14:29.702Z,84.20
2019-02-19T19:17:21.707Z,86.96
2019-02-19T19:20:11.328Z,88.61
2019-02-19T19:23:00.861Z,88.20
2019-02-19T19:25:49.782Z,88.30
2019-02-19T19:28:39.543Z,88.90
2019-02-19T19:31:33.362Z,89.91
2019-02-19T19:34:19.521Z,90.28
2019-02-19T19:37:08.637Z,89.74
2019-02-19T19:39:58.188Z,87.93
2019-02-19T19:42:47.827Z,88.00
2019-02-19T19:45:18.767Z,86.44
2019-02-19T19:47:49.843Z,87.11
2019-02-19T19:50:20.729Z,89.34
2019-02-19T19:52:51.734Z,90.27
2019-02-19T19:55:22.761Z,93.49
2019-02-19T19:57:53.907Z,93.85
2019-02-19T20:00:24.921Z,93.10
2019-02-19T20:02:56.259Z,92.29
2019-02-19T20:05:27.776Z,93.39
2019-02-19T20:07:58.706Z,93.69
2019-02-19T20:10:29.597Z,94.09
2019-02-19T20:13:00.695Z,94.54
2019-02-19T20:15:31.567Z,93.62
2019-02-19T20:18:02.511Z,93.82
2019-02-19T20:20:33.689Z,92.82
2019-02-19T20:23:04.667Z,92.93
2019-02-19T20:25:35.577Z,92.78
2019-02-19T20:28:07.248Z,93.92
2019-02-19T20:30:40.923Z,92.72
2019-02-19T20:33:11.927Z,92.94
2019-02-19T20:35:43.049Z,92.30
2019-02-19T20:38:14.043Z,91.75
2019-02-19T20:40:45.116Z,92.65
2019-02-19T20:43:16.081Z,94.45
2019-02-19T20:45:46.969Z,95.05
2019-02-19T20:48:17.901Z,95.98
2019-02-19T20:50:49.256Z,96.30
2019-02-19T20:53:20.528Z,95.31
2019-02-19T20:55:51.469Z,94.24
2019-02-19T20:58:22.343Z,93.78
2019-02-19T21:01:11.964Z,92.83
2019-02-19T21:04:01.313Z,93.41
2019-02-19T21:06:51.289Z,93.00
2019-02-19T21:09:44.262Z,93.48
2019-02-19T21:12:33.866Z,94.19
2019-02-19T21:15:25.497Z,94.87
2019-02-19T21:18:15.140Z,94.93
2019-02-19T21:21:06.869Z,95.82
2019-02-19T21:23:55.817Z,95.52
2019-02-19T21:26:45.002Z,95.58
2019-02-19T21:29:35.457Z,94.91
2019-02-19T21:32:25.820Z,95.78
2019-02-19T21:35:15.465Z,96.17
2019-02-19T21:38:04.710Z,95.74
2019-02-19T21:40:54.371Z,94.68
2019-02-19T21:43:43.688Z,95.98
2019-02-19T21:46:35.452Z,94.67
2019-02-19T21:49:24.839Z,94.78
2019-02-19T21:52:14.127Z,94.27
2019-02-19T21:55:05.837Z,93.82
2019-02-19T21:57:55.474Z,93.56
2019-02-19T22:00:44.937Z,94.36
2019-02-19T22:03:34.732Z,96.12
2019-02-19T22:06:23.931Z,98.61
2019-02-19T22:09:12.752Z,98.09
2019-02-19T22:12:01.997Z,98.53
2019-02-19T22:14:51.381Z,98.50
2019-02-19T22:17:40.878Z,99.09
2019-02-19T22:20:49.263Z,99.90
2019-02-19T22:23:38.686Z,99.28
2019-02-19T22:26:27.259Z,99.30
2019-02-19T22:29:16.778Z,99.92
2019-02-19T22:32:06.177Z,99.93
2019-02-19T22:34:55.720Z,99.43
2019-02-19T22:37:45.507Z,99.15
2019-02-19T22:40:34.987Z,100.00
2019-02-19T22:43:24.614Z,100.00
2019-02-19T22:46:13.779Z,100.00
2019-02-19T22:49:02.603Z,100.00
2019-02-19T22:51:50.908Z,100.00
2019-02-19T22:55:00.555Z,100.00
2019-02-19T22:57:48.227Z,100.00
2019-02-19T23:00:55.694Z,99.81
2019-02-19T23:03:44.208Z,98.66
2019-02-19T23:06:32.589Z,98.62
2019-02-19T23:09:21.003Z,99.40
2019-02-19T23:12:09.322Z,99.05
2019-02-19T23:14:57.163Z,98.42
2019-02-19T23:17:47.287Z,98.03
2019-02-19T23:20:34.971Z,99.07
2019-02-19T23:23:22.999Z,98.24
2019-02-19T23:26:11.335Z,98.93
2019-02-19T23:29:00.352Z,98.51
2019-02-19T23:31:48.409Z,99.51
2019-02-19T23:34:36.224Z,100.00
2019-02-19T23:37:26.258Z,99.42
2019-02-19T23:40:14.518Z,99.05
2019-02-19T23:43:02.687Z,100.00
2019-02-19T23:45:50.693Z,100.00
2019-02-19T23:48:38.386Z,100.00
2019-02-19T23:51:26.767Z,100.00
2019-02-19T23:54:15.016Z,100.00
2019-02-19T23:57:03.072Z,100.00
2019-02-19T23:59:51.055Z,100.00
